sensor_id;sensor_type;location;lat;lon;timestamp;temperature;humidity
20041;DHT22;10181;48.072;9.884;2023-04-24T00:02:13;8.80;99.90
20041;DHT22;10181;48.072;9.884;2023-04-24T00:04:39;8.80;99.90
20041;DHT22;10181;48.072;9.884;2023-04-24T00:07:10;8.80;99.90
20041;DHT22;10181;48.072;9.884;2023-04-24T00:09:36;8.80;99.90
20041;DHT22;10181;48.072;9.884;2023-04-24T00:12:02;8.80;99.90
20041;DHT22;10181;48.072;9.884;2023-04-24T00:14:30;8.80;99.90
20041;DHT22;10181;48.072;9.884;2023-04-24T00:16:56;8.80;99.90
20041;DHT22;10181;48.072;9.884;2023-04-24T00:19:22;8.80;99.90
20041;DHT22;10181;48.072;9.884;2023-04-24T00:21:48;8.80;99.90
20041;DHT22;10181;48.072;9.884;2023-04-24T00:24:16;8.80;99.90
20041;DHT22;10181;48.072;9.884;2023-04-24T00:26:41;8.80;99.90
20041;DHT22;10181;48.072;9.884;2023-04-24T00:29:07;8.80;99.90
20041;DHT22;10181;48.072;9.884;2023-04-24T00:31:33;8.80;99.90
20041;DHT22;10181;48.072;9.884;2023-04-24T00:34:03;8.80;99.90
20041;DHT22;10181;48.072;9.884;2023-04-24T00:36:30;8.80;99.90
20041;DHT22;10181;48.072;9.884;2023-04-24T00:38:56;8.80;99.90
20041;DHT22;10181;48.072;9.884;2023-04-24T00:41:22;8.80;99.90
20041;DHT22;10181;48.072;9.884;2023-04-24T00:43:49;8.80;99.90
20041;DHT22;10181;48.072;9.884;2023-04-24T00:46:16;8.80;99.90
20041;DHT22;10181;48.072;9.884;2023-04-24T00:48:43;8.80;99.90
20041;DHT22;10181;48.072;9.884;2023-04-24T00:51:08;8.80;99.90
20041;DHT22;10181;48.072;9.884;2023-04-24T00:53:34;8.80;99.90
20041;DHT22;10181;48.072;9.884;2023-04-24T00:56:01;8.80;99.90
20041;DHT22;10181;48.072;9.884;2023-04-24T00:58:30;8.80;99.90
20041;DHT22;10181;48.072;9.884;2023-04-24T01:00:57;8.80;99.90
20041;DHT22;10181;48.072;9.884;2023-04-24T01:03:28;8.80;99.90
20041;DHT22;10181;48.072;9.884;2023-04-24T01:05:55;8.70;99.90
20041;DHT22;10181;48.072;9.884;2023-04-24T01:08:26;8.70;99.90
20041;DHT22;10181;48.072;9.884;2023-04-24T01:10:52;8.70;99.90
20041;DHT22;10181;48.072;9.884;2023-04-24T01:13:19;8.70;99.90
20041;DHT22;10181;48.072;9.884;2023-04-24T01:15:45;8.70;99.90
20041;DHT22;10181;48.072;9.884;2023-04-24T01:18:11;8.70;99.90
20041;DHT22;10181;48.072;9.884;2023-04-24T01:20:38;8.70;99.90
20041;DHT22;10181;48.072;9.884;2023-04-24T01:23:06;8.70;99.90
20041;DHT22;10181;48.072;9.884;2023-04-24T01:25:31;8.70;99.90
20041;DHT22;10181;48.072;9.884;2023-04-24T01:27:58;8.70;99.90
20041;DHT22;10181;48.072;9.884;2023-04-24T01:30:24;8.70;99.90
20041;DHT22;10181;48.072;9.884;2023-04-24T01:32:50;8.70;99.90
20041;DHT22;10181;48.072;9.884;2023-04-24T01:35:17;8.70;99.90
20041;DHT22;10181;48.072;9.884;2023-04-24T01:37:43;8.70;99.90
20041;DHT22;10181;48.072;9.884;2023-04-24T01:40:09;8.70;99.90
20041;DHT22;10181;48.072;9.884;2023-04-24T01:42:35;8.70;99.90
20041;DHT22;10181;48.072;9.884;2023-04-24T01:45:03;8.70;99.90
20041;DHT22;10181;48.072;9.884;2023-04-24T01:47:30;8.70;99.90
20041;DHT22;10181;48.072;9.884;2023-04-24T01:49:55;8.70;99.90
20041;DHT22;10181;48.072;9.884;2023-04-24T01:52:21;8.70;99.90
20041;DHT22;10181;48.072;9.884;2023-04-24T01:54:47;8.60;99.90
20041;DHT22;10181;48.072;9.884;2023-04-24T01:57:14;8.60;99.90
20041;DHT22;10181;48.072;9.884;2023-04-24T01:59:40;8.60;99.90
20041;DHT22;10181;48.072;9.884;2023-04-24T02:02:06;8.60;99.90
20041;DHT22;10181;48.072;9.884;2023-04-24T02:04:31;8.60;99.90
20041;DHT22;10181;48.072;9.884;2023-04-24T02:06:57;8.60;99.90
20041;DHT22;10181;48.072;9.884;2023-04-24T02:09:22;8.60;99.90
20041;DHT22;10181;48.072;9.884;2023-04-24T02:11:48;8.60;99.90
20041;DHT22;10181;48.072;9.884;2023-04-24T02:14:16;8.60;99.90
20041;DHT22;10181;48.072;9.884;2023-04-24T02:16:42;8.60;99.90
20041;DHT22;10181;48.072;9.884;2023-04-24T02:19:09;8.60;99.90
20041;DHT22;10181;48.072;9.884;2023-04-24T02:21:35;8.60;99.90
20041;DHT22;10181;48.072;9.884;2023-04-24T02:24:01;8.60;99.90
20041;DHT22;10181;48.072;9.884;2023-04-24T02:26:26;8.60;99.90
20041;DHT22;10181;48.072;9.884;2023-04-24T02:28:52;8.60;99.90
20041;DHT22;10181;48.072;9.884;2023-04-24T02:31:17;8.60;99.90
20041;DHT22;10181;48.072;9.884;2023-04-24T02:33:43;8.60;99.90
20041;DHT22;10181;48.072;9.884;2023-04-24T02:36:09;8.60;99.90
20041;DHT22;10181;48.072;9.884;2023-04-24T02:38:34;8.60;99.90
20041;DHT22;10181;48.072;9.884;2023-04-24T02:41:00;8.60;99.90
20041;DHT22;10181;48.072;9.884;2023-04-24T02:43:27;8.60;99.90
20041;DHT22;10181;48.072;9.884;2023-04-24T02:45:53;8.60;99.90
20041;DHT22;10181;48.072;9.884;2023-04-24T02:48:18;8.60;99.90
20041;DHT22;10181;48.072;9.884;2023-04-24T02:50:46;8.60;99.90
20041;DHT22;10181;48.072;9.884;2023-04-24T02:53:11;8.60;99.90
20041;DHT22;10181;48.072;9.884;2023-04-24T02:55:37;8.60;99.90
20041;DHT22;10181;48.072;9.884;2023-04-24T02:58:02;8.60;99.90
20041;DHT22;10181;48.072;9.884;2023-04-24T03:00:28;8.60;99.90
20041;DHT22;10181;48.072;9.884;2023-04-24T03:02:53;8.60;99.90
20041;DHT22;10181;48.072;9.884;2023-04-24T03:05:19;8.60;99.90
20041;DHT22;10181;48.072;9.884;2023-04-24T03:07:45;8.60;99.90
20041;DHT22;10181;48.072;9.884;2023-04-24T03:10:11;8.60;99.90
20041;DHT22;10181;48.072;9.884;2023-04-24T03:12:36;8.60;99.90
20041;DHT22;10181;48.072;9.884;2023-04-24T03:15:02;8.50;99.90
20041;DHT22;10181;48.072;9.884;2023-04-24T03:17:27;8.50;99.90
20041;DHT22;10181;48.072;9.884;2023-04-24T03:19:53;8.50;99.90
20041;DHT22;10181;48.072;9.884;2023-04-24T03:22:18;8.50;99.90
20041;DHT22;10181;48.072;9.884;2023-04-24T03:24:44;8.50;99.90
20041;DHT22;10181;48.072;9.884;2023-04-24T03:27:10;8.50;99.90
20041;DHT22;10181;48.072;9.884;2023-04-24T03:29:35;8.50;99.90
20041;DHT22;10181;48.072;9.884;2023-04-24T03:32:01;8.50;99.90
20041;DHT22;10181;48.072;9.884;2023-04-24T03:34:26;8.50;99.90
20041;DHT22;10181;48.072;9.884;2023-04-24T03:36:52;8.50;99.90
20041;DHT22;10181;48.072;9.884;2023-04-24T03:39:18;8.40;99.90
20041;DHT22;10181;48.072;9.884;2023-04-24T03:41:43;8.40;99.90
20041;DHT22;10181;48.072;9.884;2023-04-24T03:44:09;8.40;99.90
20041;DHT22;10181;48.072;9.884;2023-04-24T03:46:35;8.40;99.90
20041;DHT22;10181;48.072;9.884;2023-04-24T03:49:00;8.40;99.90
20041;DHT22;10181;48.072;9.884;2023-04-24T03:51:26;8.40;99.90
20041;DHT22;10181;48.072;9.884;2023-04-24T03:53:53;8.40;99.90
20041;DHT22;10181;48.072;9.884;2023-04-24T03:56:19;8.40;99.90
20041;DHT22;10181;48.072;9.884;2023-04-24T03:58:45;8.30;99.90
20041;DHT22;10181;48.072;9.884;2023-04-24T04:01:10;8.30;99.90
20041;DHT22;10181;48.072;9.884;2023-04-24T04:03:37;8.30;99.90
20041;DHT22;10181;48.072;9.884;2023-04-24T04:06:02;8.30;99.90
20041;DHT22;10181;48.072;9.884;2023-04-24T04:08:28;8.30;99.90
20041;DHT22;10181;48.072;9.884;2023-04-24T04:10:54;8.20;99.90
20041;DHT22;10181;48.072;9.884;2023-04-24T04:13:20;8.20;99.90
20041;DHT22;10181;48.072;9.884;2023-04-24T04:15:45;8.20;99.90
20041;DHT22;10181;48.072;9.884;2023-04-24T04:18:11;8.20;99.90
20041;DHT22;10181;48.072;9.884;2023-04-24T04:20:36;8.20;99.90
20041;DHT22;10181;48.072;9.884;2023-04-24T04:23:02;8.20;99.90
20041;DHT22;10181;48.072;9.884;2023-04-24T04:25:28;8.20;99.90
20041;DHT22;10181;48.072;9.884;2023-04-24T04:27:54;8.20;99.90
20041;DHT22;10181;48.072;9.884;2023-04-24T04:30:20;8.20;99.90
20041;DHT22;10181;48.072;9.884;2023-04-24T04:32:47;8.20;99.90
20041;DHT22;10181;48.072;9.884;2023-04-24T04:35:12;8.20;99.90
20041;DHT22;10181;48.072;9.884;2023-04-24T04:37:38;8.20;99.90
20041;DHT22;10181;48.072;9.884;2023-04-24T04:40:05;8.20;99.90
20041;DHT22;10181;48.072;9.884;2023-04-24T04:42:32;8.20;99.90
20041;DHT22;10181;48.072;9.884;2023-04-24T04:44:59;8.20;99.90
20041;DHT22;10181;48.072;9.884;2023-04-24T04:47:25;8.20;99.90
20041;DHT22;10181;48.072;9.884;2023-04-24T04:49:52;8.20;99.90
20041;DHT22;10181;48.072;9.884;2023-04-24T04:52:18;8.20;99.90
20041;DHT22;10181;48.072;9.884;2023-04-24T04:54:43;8.20;99.90
20041;DHT22;10181;48.072;9.884;2023-04-24T04:57:10;8.20;99.90
20041;DHT22;10181;48.072;9.884;2023-04-24T04:59:35;8.20;99.90
20041;DHT22;10181;48.072;9.884;2023-04-24T05:02:01;8.20;99.90
20041;DHT22;10181;48.072;9.884;2023-04-24T05:04:26;8.20;99.90
20041;DHT22;10181;48.072;9.884;2023-04-24T05:06:52;8.20;99.90
20041;DHT22;10181;48.072;9.884;2023-04-24T05:09:18;8.20;99.90
20041;DHT22;10181;48.072;9.884;2023-04-24T05:11:44;8.20;99.90
20041;DHT22;10181;48.072;9.884;2023-04-24T05:14:09;8.20;99.90
20041;DHT22;10181;48.072;9.884;2023-04-24T05:16:35;8.20;99.90
20041;DHT22;10181;48.072;9.884;2023-04-24T05:19:02;8.20;99.90
20041;DHT22;10181;48.072;9.884;2023-04-24T05:21:28;8.20;99.90
20041;DHT22;10181;48.072;9.884;2023-04-24T05:23:54;8.20;99.90
20041;DHT22;10181;48.072;9.884;2023-04-24T05:26:20;8.20;99.90
20041;DHT22;10181;48.072;9.884;2023-04-24T05:28:46;8.20;99.90
20041;DHT22;10181;48.072;9.884;2023-04-24T05:31:11;8.20;99.90
20041;DHT22;10181;48.072;9.884;2023-04-24T05:33:37;8.20;99.90
20041;DHT22;10181;48.072;9.884;2023-04-24T05:36:03;8.20;99.90
20041;DHT22;10181;48.072;9.884;2023-04-24T05:38:30;8.20;99.90
20041;DHT22;10181;48.072;9.884;2023-04-24T05:40:56;8.20;99.90
20041;DHT22;10181;48.072;9.884;2023-04-24T05:43:21;8.20;99.90
20041;DHT22;10181;48.072;9.884;2023-04-24T05:45:47;8.20;99.90
20041;DHT22;10181;48.072;9.884;2023-04-24T05:48:13;8.20;99.90
20041;DHT22;10181;48.072;9.884;2023-04-24T05:50:38;8.30;99.90
20041;DHT22;10181;48.072;9.884;2023-04-24T05:53:05;8.30;99.90
20041;DHT22;10181;48.072;9.884;2023-04-24T05:55:32;8.30;99.90
20041;DHT22;10181;48.072;9.884;2023-04-24T05:57:58;8.30;99.90
20041;DHT22;10181;48.072;9.884;2023-04-24T06:00:24;8.30;99.90
20041;DHT22;10181;48.072;9.884;2023-04-24T06:02:50;8.40;99.90
20041;DHT22;10181;48.072;9.884;2023-04-24T06:05:15;8.40;99.90
20041;DHT22;10181;48.072;9.884;2023-04-24T06:07:41;8.40;99.90
20041;DHT22;10181;48.072;9.884;2023-04-24T06:10:07;8.40;99.90
20041;DHT22;10181;48.072;9.884;2023-04-24T06:12:33;8.40;99.90
20041;DHT22;10181;48.072;9.884;2023-04-24T06:14:59;8.40;99.90
20041;DHT22;10181;48.072;9.884;2023-04-24T06:17:25;8.50;99.90
20041;DHT22;10181;48.072;9.884;2023-04-24T06:19:51;8.60;99.90
20041;DHT22;10181;48.072;9.884;2023-04-24T06:22:16;8.50;99.90
20041;DHT22;10181;48.072;9.884;2023-04-24T06:24:42;8.60;99.90
20041;DHT22;10181;48.072;9.884;2023-04-24T06:27:08;8.60;99.90
20041;DHT22;10181;48.072;9.884;2023-04-24T06:29:35;8.60;99.90
20041;DHT22;10181;48.072;9.884;2023-04-24T06:32:00;8.50;99.90
20041;DHT22;10181;48.072;9.884;2023-04-24T06:34:26;8.40;99.90
20041;DHT22;10181;48.072;9.884;2023-04-24T06:36:52;8.40;99.90
20041;DHT22;10181;48.072;9.884;2023-04-24T06:39:17;8.40;99.90
20041;DHT22;10181;48.072;9.884;2023-04-24T06:41:43;8.30;99.90
20041;DHT22;10181;48.072;9.884;2023-04-24T06:44:08;8.10;99.90
20041;DHT22;10181;48.072;9.884;2023-04-24T06:46:34;7.80;99.90
20041;DHT22;10181;48.072;9.884;2023-04-24T06:49:00;7.60;99.90
20041;DHT22;10181;48.072;9.884;2023-04-24T06:51:26;7.30;99.90
20041;DHT22;10181;48.072;9.884;2023-04-24T06:53:55;7.10;99.90
20041;DHT22;10181;48.072;9.884;2023-04-24T06:56:23;7.00;99.90
20041;DHT22;10181;48.072;9.884;2023-04-24T06:58:49;6.90;99.90
20041;DHT22;10181;48.072;9.884;2023-04-24T07:01:14;6.90;99.90
20041;DHT22;10181;48.072;9.884;2023-04-24T07:03:40;7.00;99.90
20041;DHT22;10181;48.072;9.884;2023-04-24T07:06:06;7.00;99.90
20041;DHT22;10181;48.072;9.884;2023-04-24T07:08:31;7.00;99.90
20041;DHT22;10181;48.072;9.884;2023-04-24T07:10:58;7.00;99.90
20041;DHT22;10181;48.072;9.884;2023-04-24T07:13:24;7.00;99.90
20041;DHT22;10181;48.072;9.884;2023-04-24T07:15:49;7.10;99.90
20041;DHT22;10181;48.072;9.884;2023-04-24T07:18:20;7.20;99.90
20041;DHT22;10181;48.072;9.884;2023-04-24T07:20:46;7.30;99.90
20041;DHT22;10181;48.072;9.884;2023-04-24T07:23:12;7.40;99.90
20041;DHT22;10181;48.072;9.884;2023-04-24T07:25:38;7.40;99.90
20041;DHT22;10181;48.072;9.884;2023-04-24T07:28:04;7.50;99.90
20041;DHT22;10181;48.072;9.884;2023-04-24T07:30:31;7.60;99.90
20041;DHT22;10181;48.072;9.884;2023-04-24T07:32:58;7.60;99.90
20041;DHT22;10181;48.072;9.884;2023-04-24T07:35:24;7.80;99.90
20041;DHT22;10181;48.072;9.884;2023-04-24T07:37:52;7.90;99.90
20041;DHT22;10181;48.072;9.884;2023-04-24T07:40:18;8.10;99.90
20041;DHT22;10181;48.072;9.884;2023-04-24T07:42:44;8.20;99.90
20041;DHT22;10181;48.072;9.884;2023-04-24T07:45:09;8.20;99.90
20041;DHT22;10181;48.072;9.884;2023-04-24T07:47:35;8.20;99.90
20041;DHT22;10181;48.072;9.884;2023-04-24T07:50:05;8.30;99.90
20041;DHT22;10181;48.072;9.884;2023-04-24T07:52:31;8.40;99.90
20041;DHT22;10181;48.072;9.884;2023-04-24T07:54:56;8.50;99.90
20041;DHT22;10181;48.072;9.884;2023-04-24T07:57:26;8.60;99.90
20041;DHT22;10181;48.072;9.884;2023-04-24T07:59:51;8.50;99.90
20041;DHT22;10181;48.072;9.884;2023-04-24T08:02:17;8.60;99.90
20041;DHT22;10181;48.072;9.884;2023-04-24T08:04:43;8.70;99.90
20041;DHT22;10181;48.072;9.884;2023-04-24T08:07:08;8.70;99.90
20041;DHT22;10181;48.072;9.884;2023-04-24T08:09:34;8.80;99.90
20041;DHT22;10181;48.072;9.884;2023-04-24T08:11:59;8.80;99.90
20041;DHT22;10181;48.072;9.884;2023-04-24T08:14:25;8.90;99.90
20041;DHT22;10181;48.072;9.884;2023-04-24T08:16:54;9.00;99.90
20041;DHT22;10181;48.072;9.884;2023-04-24T08:19:20;9.00;99.90
20041;DHT22;10181;48.072;9.884;2023-04-24T08:21:46;9.00;99.90
20041;DHT22;10181;48.072;9.884;2023-04-24T08:24:12;9.00;99.90
20041;DHT22;10181;48.072;9.884;2023-04-24T08:26:37;9.20;99.90
20041;DHT22;10181;48.072;9.884;2023-04-24T08:29:03;9.40;99.90
20041;DHT22;10181;48.072;9.884;2023-04-24T08:31:29;9.40;99.90
20041;DHT22;10181;48.072;9.884;2023-04-24T08:33:54;9.50;99.90
20041;DHT22;10181;48.072;9.884;2023-04-24T08:36:20;9.30;99.90
20041;DHT22;10181;48.072;9.884;2023-04-24T08:38:46;9.20;99.90
20041;DHT22;10181;48.072;9.884;2023-04-24T08:41:14;9.00;99.90
20041;DHT22;10181;48.072;9.884;2023-04-24T08:43:41;8.40;99.90
20041;DHT22;10181;48.072;9.884;2023-04-24T08:46:07;7.70;99.90
20041;DHT22;10181;48.072;9.884;2023-04-24T08:48:34;7.40;99.90
20041;DHT22;10181;48.072;9.884;2023-04-24T08:51:00;6.90;99.90
20041;DHT22;10181;48.072;9.884;2023-04-24T08:53:27;6.70;99.90
20041;DHT22;10181;48.072;9.884;2023-04-24T08:55:54;6.60;99.90
20041;DHT22;10181;48.072;9.884;2023-04-24T08:58:20;6.60;99.90
20041;DHT22;10181;48.072;9.884;2023-04-24T09:00:48;6.50;99.90
20041;DHT22;10181;48.072;9.884;2023-04-24T09:03:18;6.60;99.90
20041;DHT22;10181;48.072;9.884;2023-04-24T09:05:47;6.60;99.90
20041;DHT22;10181;48.072;9.884;2023-04-24T09:08:13;6.80;99.90
20041;DHT22;10181;48.072;9.884;2023-04-24T09:10:40;7.00;99.90
20041;DHT22;10181;48.072;9.884;2023-04-24T09:13:06;7.40;99.90
20041;DHT22;10181;48.072;9.884;2023-04-24T09:15:34;7.70;99.90
20041;DHT22;10181;48.072;9.884;2023-04-24T09:18:02;8.10;99.90
20041;DHT22;10181;48.072;9.884;2023-04-24T09:20:28;8.20;99.90
20041;DHT22;10181;48.072;9.884;2023-04-24T09:22:54;8.40;99.90
20041;DHT22;10181;48.072;9.884;2023-04-24T09:25:21;8.60;99.90
20041;DHT22;10181;48.072;9.884;2023-04-24T09:27:47;8.80;99.90
20041;DHT22;10181;48.072;9.884;2023-04-24T09:30:13;8.90;99.90
20041;DHT22;10181;48.072;9.884;2023-04-24T09:32:39;9.10;99.90
20041;DHT22;10181;48.072;9.884;2023-04-24T09:35:08;9.20;99.90
20041;DHT22;10181;48.072;9.884;2023-04-24T09:37:43;9.20;99.90
20041;DHT22;10181;48.072;9.884;2023-04-24T09:42:36;9.20;99.90
20041;DHT22;10181;48.072;9.884;2023-04-24T09:45:02;9.30;99.90
20041;DHT22;10181;48.072;9.884;2023-04-24T09:47:27;9.50;99.90
20041;DHT22;10181;48.072;9.884;2023-04-24T09:49:57;9.70;99.90
20041;DHT22;10181;48.072;9.884;2023-04-24T09:52:23;9.80;99.90
20041;DHT22;10181;48.072;9.884;2023-04-24T09:54:53;9.90;99.90
20041;DHT22;10181;48.072;9.884;2023-04-24T09:57:19;10.10;99.90
20041;DHT22;10181;48.072;9.884;2023-04-24T09:59:46;10.10;99.90
20041;DHT22;10181;48.072;9.884;2023-04-24T10:02:19;10.20;99.90
20041;DHT22;10181;48.072;9.884;2023-04-24T10:04:54;10.00;99.90
20041;DHT22;10181;48.072;9.884;2023-04-24T10:07:28;10.00;99.90
20041;DHT22;10181;48.072;9.884;2023-04-24T10:09:54;9.80;99.90
20041;DHT22;10181;48.072;9.884;2023-04-24T10:12:20;9.80;99.90
20041;DHT22;10181;48.072;9.884;2023-04-24T10:14:46;10.00;99.90
20041;DHT22;10181;48.072;9.884;2023-04-24T10:17:12;10.20;99.90
20041;DHT22;10181;48.072;9.884;2023-04-24T10:19:40;10.30;99.90
20041;DHT22;10181;48.072;9.884;2023-04-24T10:22:06;10.30;99.90
20041;DHT22;10181;48.072;9.884;2023-04-24T10:24:33;10.30;99.90
20041;DHT22;10181;48.072;9.884;2023-04-24T10:27:00;10.30;99.90
20041;DHT22;10181;48.072;9.884;2023-04-24T10:29:27;10.40;99.90
20041;DHT22;10181;48.072;9.884;2023-04-24T10:31:55;10.40;99.90
20041;DHT22;10181;48.072;9.884;2023-04-24T10:34:21;10.40;99.90
20041;DHT22;10181;48.072;9.884;2023-04-24T10:36:51;10.60;99.90
20041;DHT22;10181;48.072;9.884;2023-04-24T10:39:18;10.80;99.90
20041;DHT22;10181;48.072;9.884;2023-04-24T10:41:45;11.00;99.90
20041;DHT22;10181;48.072;9.884;2023-04-24T10:44:15;11.00;99.90
20041;DHT22;10181;48.072;9.884;2023-04-24T10:46:46;11.00;99.90
20041;DHT22;10181;48.072;9.884;2023-04-24T10:49:14;11.20;99.90
20041;DHT22;10181;48.072;9.884;2023-04-24T10:51:52;11.30;99.90
20041;DHT22;10181;48.072;9.884;2023-04-24T10:54:33;11.50;99.90
20041;DHT22;10181;48.072;9.884;2023-04-24T10:59:50;11.90;99.90
20041;DHT22;10181;48.072;9.884;2023-04-24T11:02:17;12.20;99.90
20041;DHT22;10181;48.072;9.884;2023-04-24T11:04:44;12.20;99.90
20041;DHT22;10181;48.072;9.884;2023-04-24T11:07:11;11.90;99.90
20041;DHT22;10181;48.072;9.884;2023-04-24T11:09:37;11.50;99.90
20041;DHT22;10181;48.072;9.884;2023-04-24T11:17:38;11.00;99.90
20041;DHT22;10181;48.072;9.884;2023-04-24T11:20:15;10.90;99.90
20041;DHT22;10181;48.072;9.884;2023-04-24T11:22:41;10.90;99.90
20041;DHT22;10181;48.072;9.884;2023-04-24T11:25:08;11.00;99.90
20041;DHT22;10181;48.072;9.884;2023-04-24T11:27:43;11.10;99.90
20041;DHT22;10181;48.072;9.884;2023-04-24T11:30:09;11.20;99.90
20041;DHT22;10181;48.072;9.884;2023-04-24T11:32:37;11.40;99.90
20041;DHT22;10181;48.072;9.884;2023-04-24T11:35:21;11.50;99.90
20041;DHT22;10181;48.072;9.884;2023-04-24T11:37:52;11.80;99.90
20041;DHT22;10181;48.072;9.884;2023-04-24T11:40:19;11.80;99.90
20041;DHT22;10181;48.072;9.884;2023-04-24T11:42:51;11.90;99.90
20041;DHT22;10181;48.072;9.884;2023-04-24T11:45:38;11.80;99.90
20041;DHT22;10181;48.072;9.884;2023-04-24T11:48:03;12.00;99.90
20041;DHT22;10181;48.072;9.884;2023-04-24T11:50:29;12.20;99.90
20041;DHT22;10181;48.072;9.884;2023-04-24T11:52:55;12.40;99.90
20041;DHT22;10181;48.072;9.884;2023-04-24T11:57:48;12.60;99.90
20041;DHT22;10181;48.072;9.884;2023-04-24T12:00:22;12.20;99.90
20041;DHT22;10181;48.072;9.884;2023-04-24T12:02:49;11.80;99.90
20041;DHT22;10181;48.072;9.884;2023-04-24T12:05:26;12.00;99.90
20041;DHT22;10181;48.072;9.884;2023-04-24T12:07:53;12.50;99.90
20041;DHT22;10181;48.072;9.884;2023-04-24T12:10:23;12.70;99.90
20041;DHT22;10181;48.072;9.884;2023-04-24T12:12:49;12.50;99.90
20041;DHT22;10181;48.072;9.884;2023-04-24T12:15:20;12.20;99.90
20041;DHT22;10181;48.072;9.884;2023-04-24T12:17:46;12.00;99.60
20041;DHT22;10181;48.072;9.884;2023-04-24T12:20:13;11.70;98.10
20041;DHT22;10181;48.072;9.884;2023-04-24T12:22:59;11.60;99.90
20041;DHT22;10181;48.072;9.884;2023-04-24T12:25:29;11.60;99.90
20041;DHT22;10181;48.072;9.884;2023-04-24T12:30:35;11.40;99.90
20041;DHT22;10181;48.072;9.884;2023-04-24T12:33:03;11.20;99.40
20041;DHT22;10181;48.072;9.884;2023-04-24T12:35:31;11.20;99.90
20041;DHT22;10181;48.072;9.884;2023-04-24T12:38:12;11.10;99.90
20041;DHT22;10181;48.072;9.884;2023-04-24T12:40:38;11.00;99.90
20041;DHT22;10181;48.072;9.884;2023-04-24T12:45:39;10.90;99.90
20041;DHT22;10181;48.072;9.884;2023-04-24T12:48:04;11.00;99.90
20041;DHT22;10181;48.072;9.884;2023-04-24T12:50:30;11.00;98.80
20041;DHT22;10181;48.072;9.884;2023-04-24T12:52:56;11.30;99.90
20041;DHT22;10181;48.072;9.884;2023-04-24T12:55:21;11.30;99.90
20041;DHT22;10181;48.072;9.884;2023-04-24T12:57:47;11.40;99.00
20041;DHT22;10181;48.072;9.884;2023-04-24T13:00:13;11.40;98.30
20041;DHT22;10181;48.072;9.884;2023-04-24T13:02:39;11.40;99.00
20041;DHT22;10181;48.072;9.884;2023-04-24T13:05:05;11.40;98.40
20041;DHT22;10181;48.072;9.884;2023-04-24T13:07:31;11.30;99.20
20041;DHT22;10181;48.072;9.884;2023-04-24T13:09:57;11.20;97.30
20041;DHT22;10181;48.072;9.884;2023-04-24T13:12:25;11.10;98.50
20041;DHT22;10181;48.072;9.884;2023-04-24T13:14:52;11.10;98.60
20041;DHT22;10181;48.072;9.884;2023-04-24T13:17:17;11.20;99.60
20041;DHT22;10181;48.072;9.884;2023-04-24T13:19:44;11.20;99.20
20041;DHT22;10181;48.072;9.884;2023-04-24T13:22:11;11.20;97.80
20041;DHT22;10181;48.072;9.884;2023-04-24T13:24:37;11.20;99.90
20041;DHT22;10181;48.072;9.884;2023-04-24T13:27:03;11.20;99.90
20041;DHT22;10181;48.072;9.884;2023-04-24T13:29:29;11.20;99.80
20041;DHT22;10181;48.072;9.884;2023-04-24T13:31:55;11.20;99.90
20041;DHT22;10181;48.072;9.884;2023-04-24T13:34:22;11.10;99.70
20041;DHT22;10181;48.072;9.884;2023-04-24T13:36:52;11.10;97.70
20041;DHT22;10181;48.072;9.884;2023-04-24T13:39:18;11.10;98.10
20041;DHT22;10181;48.072;9.884;2023-04-24T13:41:44;11.20;99.90
20041;DHT22;10181;48.072;9.884;2023-04-24T13:44:12;11.50;97.60
20041;DHT22;10181;48.072;9.884;2023-04-24T13:46:38;11.40;96.60
20041;DHT22;10181;48.072;9.884;2023-04-24T13:49:03;11.30;95.50
20041;DHT22;10181;48.072;9.884;2023-04-24T13:51:29;11.10;95.20
20041;DHT22;10181;48.072;9.884;2023-04-24T13:53:55;11.00;96.40
20041;DHT22;10181;48.072;9.884;2023-04-24T13:56:21;11.00;96.50
20041;DHT22;10181;48.072;9.884;2023-04-24T13:58:48;11.00;96.70
20041;DHT22;10181;48.072;9.884;2023-04-24T14:01:14;11.10;99.00
20041;DHT22;10181;48.072;9.884;2023-04-24T14:03:41;11.20;97.00
20041;DHT22;10181;48.072;9.884;2023-04-24T14:06:06;11.20;96.50
20041;DHT22;10181;48.072;9.884;2023-04-24T14:08:32;11.20;97.60
20041;DHT22;10181;48.072;9.884;2023-04-24T14:10:58;11.20;96.20
20041;DHT22;10181;48.072;9.884;2023-04-24T14:13:23;11.10;96.10
20041;DHT22;10181;48.072;9.884;2023-04-24T14:15:49;11.20;99.00
20041;DHT22;10181;48.072;9.884;2023-04-24T14:18:15;11.10;96.10
20041;DHT22;10181;48.072;9.884;2023-04-24T14:20:40;11.30;98.70
20041;DHT22;10181;48.072;9.884;2023-04-24T14:23:06;11.30;98.40
20041;DHT22;10181;48.072;9.884;2023-04-24T14:25:32;11.30;98.80
20041;DHT22;10181;48.072;9.884;2023-04-24T14:27:57;11.30;96.80
20041;DHT22;10181;48.072;9.884;2023-04-24T14:30:23;11.50;98.20
20041;DHT22;10181;48.072;9.884;2023-04-24T14:32:48;11.60;96.50
20041;DHT22;10181;48.072;9.884;2023-04-24T14:35:15;11.60;96.70
20041;DHT22;10181;48.072;9.884;2023-04-24T14:37:40;11.50;98.30
20041;DHT22;10181;48.072;9.884;2023-04-24T14:40:07;11.60;98.80
20041;DHT22;10181;48.072;9.884;2023-04-24T14:42:33;11.70;99.20
20041;DHT22;10181;48.072;9.884;2023-04-24T14:44:59;11.60;99.00
20041;DHT22;10181;48.072;9.884;2023-04-24T14:47:25;11.80;98.50
20041;DHT22;10181;48.072;9.884;2023-04-24T14:49:51;12.00;97.60
20041;DHT22;10181;48.072;9.884;2023-04-24T14:52:16;12.30;99.40
20041;DHT22;10181;48.072;9.884;2023-04-24T14:54:42;12.40;97.30
20041;DHT22;10181;48.072;9.884;2023-04-24T14:57:08;12.30;97.60
20041;DHT22;10181;48.072;9.884;2023-04-24T14:59:34;12.30;98.40
20041;DHT22;10181;48.072;9.884;2023-04-24T15:02:00;12.50;99.50
20041;DHT22;10181;48.072;9.884;2023-04-24T15:04:27;12.10;96.40
20041;DHT22;10181;48.072;9.884;2023-04-24T15:06:53;11.90;97.30
20041;DHT22;10181;48.072;9.884;2023-04-24T15:09:23;11.70;97.30
20041;DHT22;10181;48.072;9.884;2023-04-24T15:11:49;11.60;96.50
20041;DHT22;10181;48.072;9.884;2023-04-24T15:14:16;11.70;98.80
20041;DHT22;10181;48.072;9.884;2023-04-24T15:16:41;12.00;97.70
20041;DHT22;10181;48.072;9.884;2023-04-24T15:19:07;12.10;99.00
20041;DHT22;10181;48.072;9.884;2023-04-24T15:21:33;12.40;99.90
20041;DHT22;10181;48.072;9.884;2023-04-24T15:23:59;12.30;97.50
20041;DHT22;10181;48.072;9.884;2023-04-24T15:26:24;12.30;96.90
20041;DHT22;10181;48.072;9.884;2023-04-24T15:28:51;12.50;99.90
20041;DHT22;10181;48.072;9.884;2023-04-24T15:31:17;12.30;97.80
20041;DHT22;10181;48.072;9.884;2023-04-24T15:33:43;12.00;98.30
20041;DHT22;10181;48.072;9.884;2023-04-24T15:36:09;11.60;98.50
20041;DHT22;10181;48.072;9.884;2023-04-24T15:38:35;11.50;97.90
20041;DHT22;10181;48.072;9.884;2023-04-24T15:41:01;11.70;99.20
20041;DHT22;10181;48.072;9.884;2023-04-24T15:43:26;11.70;97.60
20041;DHT22;10181;48.072;9.884;2023-04-24T15:45:55;11.50;98.10
20041;DHT22;10181;48.072;9.884;2023-04-24T15:48:21;11.40;99.00
20041;DHT22;10181;48.072;9.884;2023-04-24T15:50:46;11.60;99.90
20041;DHT22;10181;48.072;9.884;2023-04-24T15:53:12;11.40;99.20
20041;DHT22;10181;48.072;9.884;2023-04-24T15:55:38;11.70;99.90